Time;durP1;ratioP1;P1;durP2;ratioP2;P2;SDS_P1;SDS_P2;PMS_P1;PMS_P2;Temp;Humidity;BMP_temperature;BMP_pressure;BME280_temperature;BME280_humidity;BME280_pressure;Samples;Min_cycle;Max_cycle;Signal;HPM_P1;HPM_P2
2021/09/26 00:03:11;;;;;;;12.10;9.87;;;;;15.90;100859.00;;;;10423302;28;20690;-78
2021/09/26 00:08:14;;;;;;;10.93;9.37;;;;;15.90;100855.00;;;;10443093;28;20204;-78
2021/09/26 00:13:16;;;;;;;11.47;9.80;;;;;16.00;100864.00;;;;10460101;28;20195;-78
2021/09/26 00:18:18;;;;;;;14.43;9.60;;;;;16.00;100860.00;;;;10453373;28;20553;-78
2021/09/26 00:23:20;;;;;;;12.10;9.50;;;;;16.00;100855.00;;;;10403763;28;20237;-78
2021/09/26 00:28:22;;;;;;;15.05;10.23;;;;;16.00;100850.00;;;;10420100;28;20195;-78
2021/09/26 00:33:25;;;;;;;13.47;9.60;;;;;16.00;100852.00;;;;10436605;28;20573;-78
2021/09/26 00:38:27;;;;;;;15.47;9.30;;;;;16.10;100847.00;;;;10404308;28;20203;-78
2021/09/26 00:43:30;;;;;;;16.73;13.73;;;;;16.10;100839.00;;;;10387367;28;20301;-78
2021/09/26 00:48:32;;;;;;;15.70;10.25;;;;;16.10;100834.00;;;;10436647;28;20211;-78
2021/09/26 00:53:34;;;;;;;12.43;9.93;;;;;16.20;100825.00;;;;10397926;28;20195;-77
2021/09/26 00:58:38;;;;;;;10.40;9.33;;;;;16.30;100826.00;;;;10459472;28;20203;-78
2021/09/26 01:03:39;;;;;;;14.63;10.73;;;;;16.30;100822.00;;;;10485079;28;20205;-77
2021/09/26 01:08:56;;;;;;;13.60;9.90;;;;;16.50;100824.00;;;;10428342;28;20202;-76
2021/09/26 01:14:17;;;;;;;15.13;11.13;;;;;16.70;100828.00;;;;10451309;28;20198;-77
2021/09/26 01:19:47;;;;;;;11.27;9.80;;;;;16.80;100814.00;;;;10431074;28;20195;-77
2021/09/26 01:25:12;;;;;;;11.43;9.50;;;;;17.00;100825.00;;;;10400172;28;20211;-77
2021/09/26 01:30:18;;;;;;;10.73;9.05;;;;;17.10;100816.00;;;;10440160;28;20194;-78
2021/09/26 01:35:22;;;;;;;11.95;9.60;;;;;17.10;100817.00;;;;10458509;28;20210;-77
2021/09/26 01:40:51;;;;;;;13.32;9.90;;;;;17.20;100819.00;;;;10458017;28;20232;-77
2021/09/26 01:45:56;;;;;;;10.82;8.52;;;;;17.20;100821.00;;;;10408885;28;20692;-77
2021/09/26 01:51:01;;;;;;;13.55;9.73;;;;;17.30;100815.00;;;;10457918;28;20248;-77
2021/09/26 01:56:04;;;;;;;11.00;8.80;;;;;17.30;100808.00;;;;10440366;28;20182;-77
2021/09/26 02:01:07;;;;;;;13.57;9.10;;;;;17.30;100807.00;;;;10457405;28;20197;-77
2021/09/26 02:06:10;;;;;;;10.02;9.00;;;;;17.30;100809.00;;;;10440589;28;20206;-77
2021/09/26 02:11:14;;;;;;;10.57;8.98;;;;;17.30;100810.00;;;;10423858;28;20200;-77
2021/09/26 02:16:17;;;;;;;10.57;8.60;;;;;17.40;100811.00;;;;10457623;28;20244;-77
2021/09/26 02:21:21;;;;;;;12.10;9.45;;;;;17.40;100813.00;;;;10424132;28;20565;-77
2021/09/26 02:26:25;;;;;;;12.85;9.50;;;;;17.40;100810.00;;;;10432427;28;20244;-77
2021/09/26 02:31:27;;;;;;;12.65;9.18;;;;;17.40;100811.00;;;;10415676;28;20195;-77
2021/09/26 02:36:29;;;;;;;12.18;9.57;;;;;17.40;100802.00;;;;10415001;28;20211;-77
2021/09/26 02:41:53;;;;;;;11.15;8.63;;;;;17.40;100802.00;;;;10432175;28;20574;-77
2021/09/26 02:47:01;;;;;;;14.40;9.27;;;;;17.40;100803.00;;;;10415227;28;20206;-76
2021/09/26 02:52:06;;;;;;;12.05;9.57;;;;;17.40;100799.00;;;;10432590;28;20202;-77
2021/09/26 02:57:10;;;;;;;10.25;9.07;;;;;17.40;100795.00;;;;10403980;28;20199;-77
2021/09/26 03:02:12;;;;;;;13.85;9.13;;;;;17.40;100790.00;;;;10456523;28;20244;-77
2021/09/26 03:07:14;;;;;;;9.73;8.73;;;;;17.50;100787.00;;;;10456374;28;20214;-77
2021/09/26 03:12:20;;;;;;;17.70;8.45;;;;;17.50;100783.00;;;;10464039;28;20194;-77
2021/09/26 03:17:22;;;;;;;12.95;10.10;;;;;17.40;100773.00;;;;10430435;28;20232;-77
2021/09/26 03:22:24;;;;;;;12.52;10.13;;;;;17.30;100763.00;;;;10413537;28;20707;-77
2021/09/26 03:27:26;;;;;;;12.77;11.13;;;;;17.20;100754.00;;;;10446154;28;20206;-77
2021/09/26 03:32:28;;;;;;;14.10;12.15;;;;;17.20;100755.00;;;;10446012;28;20617;-77
2021/09/26 03:37:30;;;;;;;13.73;10.88;;;;;17.10;100744.00;;;;10412913;28;20186;-77
2021/09/26 03:42:32;;;;;;;15.45;11.40;;;;;17.10;100752.00;;;;10429359;28;20260;-77
2021/09/26 03:47:34;;;;;;;14.00;10.90;;;;;17.00;100737.00;;;;10444695;28;20218;-77
2021/09/26 03:52:36;;;;;;;17.15;11.57;;;;;16.90;100741.00;;;;10445049;28;20196;-77
2021/09/26 03:57:39;;;;;;;14.50;11.80;;;;;16.70;100756.00;;;;10470476;28;20652;-77
2021/09/26 04:02:42;;;;;;;14.38;11.98;;;;;16.60;100737.00;;;;10485930;28;20186;-77
2021/09/26 04:07:44;;;;;;;18.48;12.38;;;;;16.60;100746.00;;;;10452524;28;20244;-77
2021/09/26 04:12:46;;;;;;;13.70;11.18;;;;;16.60;100749.00;;;;10452150;28;20194;-77
2021/09/26 04:17:48;;;;;;;15.43;12.30;;;;;16.50;100767.00;;;;10468971;28;20170;-77
2021/09/26 04:22:50;;;;;;;14.02;11.68;;;;;16.40;100777.00;;;;10451464;28;20193;-78
2021/09/26 04:27:57;;;;;;;15.37;12.33;;;;;16.40;100774.00;;;;10468067;28;20239;-77
2021/09/26 04:32:59;;;;;;;16.42;12.82;;;;;16.30;100768.00;;;;10451517;28;20190;-77
2021/09/26 04:38:01;;;;;;;16.42;13.13;;;;;16.20;100769.00;;;;10468089;28;20672;-77
2021/09/26 04:43:03;;;;;;;16.38;12.77;;;;;16.20;100774.00;;;;10467501;28;20214;-77
2021/09/26 04:48:05;;;;;;;16.77;13.02;;;;;16.20;100771.00;;;;10483386;28;20224;-77
2021/09/26 04:53:07;;;;;;;16.00;13.52;;;;;16.10;100771.00;;;;10483615;28;20648;-78
2021/09/26 04:58:10;;;;;;;20.97;14.37;;;;;16.10;100777.00;;;;10500233;28;20193;-78
2021/09/26 05:03:13;;;;;;;16.13;14.13;;;;;16.10;100781.00;;;;10500269;28;20640;-77
2021/09/26 05:08:15;;;;;;;19.63;14.63;;;;;16.00;100775.00;;;;10483446;28;20229;-77
2021/09/26 05:13:17;;;;;;;19.97;15.20;;;;;16.00;100776.00;;;;10466063;28;20194;-78
2021/09/26 05:18:19;;;;;;;22.53;16.07;;;;;15.90;100783.00;;;;10466150;28;20190;-77
2021/09/26 05:23:21;;;;;;;21.33;16.60;;;;;15.90;100779.00;;;;10482549;28;20200;-78
2021/09/26 05:28:23;;;;;;;24.47;17.53;;;;;15.80;100789.00;;;;10450764;28;20919;-77
2021/09/26 05:33:25;;;;;;;21.55;18.52;;;;;15.90;100796.00;;;;10380790;28;20257;-77
2021/09/26 05:38:30;;;;;;;22.37;17.90;;;;;15.90;100802.00;;;;10400330;28;20183;-78
2021/09/26 05:43:32;;;;;;;23.60;18.83;;;;;15.90;100806.00;;;;10399726;28;20245;-77
2021/09/26 05:48:33;;;;;;;23.83;18.63;;;;;15.90;100817.00;;;;10400164;28;20215;-77
2021/09/26 05:53:35;;;;;;;27.27;19.30;;;;;15.90;100825.00;;;;10383900;28;20187;-77
2021/09/26 05:58:38;;;;;;;25.83;19.40;;;;;16.00;100828.00;;;;10401185;28;20650;-78
2021/09/26 06:03:41;;;;;;;27.10;20.43;;;;;16.10;100833.00;;;;10424689;28;20612;-77
2021/09/26 06:08:43;;;;;;;32.03;21.80;;;;;16.20;100844.00;;;;10456905;28;20249;-77
2021/09/26 06:13:45;;;;;;;32.00;22.27;;;;;16.30;100852.00;;;;10407345;28;20679;-77
2021/09/26 06:18:47;;;;;;;31.90;24.75;;;;;16.60;100888.00;;;;10419638;28;20206;-77
2021/09/26 06:23:49;;;;;;;34.47;25.52;;;;;16.80;100883.00;;;;10463564;28;20198;-77
2021/09/26 06:28:54;;;;;;;38.35;26.48;;;;;16.90;100874.00;;;;10423369;28;20210;-77
2021/09/26 06:33:55;;;;;;;35.28;25.88;;;;;17.00;100883.00;;;;10406691;28;20661;-77
2021/09/26 06:38:58;;;;;;;42.53;27.55;;;;;17.10;100879.00;;;;10407142;28;20589;-77
2021/09/26 06:44:01;;;;;;;42.95;28.83;;;;;17.30;100903.00;;;;10401995;28;20203;-77
2021/09/26 06:49:04;;;;;;;44.67;29.35;;;;;17.50;100911.00;;;;10446310;28;20271;-77
2021/09/26 06:54:06;;;;;;;44.20;32.13;;;;;17.70;100922.00;;;;10463053;28;20198;-77
2021/09/26 06:59:09;;;;;;;46.67;32.03;;;;;17.90;100924.00;;;;10500546;28;20622;-77
2021/09/26 07:04:10;;;;;;;43.15;31.25;;;;;18.00;100933.00;;;;10429849;28;20657;-77
2021/09/26 07:09:12;;;;;;;51.30;34.85;;;;;18.40;100944.00;;;;10462500;28;20194;-76
2021/09/26 07:14:14;;;;;;;48.13;34.28;;;;;18.90;100954.00;;;;10429010;28;20740;-77
2021/09/26 07:19:16;;;;;;;44.72;31.58;;;;;19.00;100977.00;;;;10426484;28;20198;-77
2021/09/26 07:24:18;;;;;;;42.63;31.42;;;;;19.20;100984.00;;;;10456732;28;20305;-76
2021/09/26 07:29:20;;;;;;;40.67;29.23;;;;;19.30;100972.00;;;;10445124;28;20222;-77
2021/09/26 07:34:22;;;;;;;37.42;29.92;;;;;19.30;100979.00;;;;10428613;28;20190;-77
2021/09/26 07:39:24;;;;;;;36.72;27.60;;;;;19.20;100960.00;;;;10403234;28;20690;-77
2021/09/26 07:44:26;;;;;;;37.05;28.67;;;;;19.20;100971.00;;;;10386971;28;20768;-77
2021/09/26 07:49:28;;;;;;;39.65;28.45;;;;;19.40;100958.00;;;;10419750;28;20257;-77
2021/09/26 07:54:31;;;;;;;36.55;28.05;;;;;19.80;100962.00;;;;10422523;28;20198;-76
2021/09/26 07:59:33;;;;;;;38.33;28.95;;;;;20.20;100971.00;;;;10461680;28;20230;-76
2021/09/26 08:04:35;;;;;;;32.28;27.55;;;;;20.50;100969.00;;;;10419326;28;20292;-76
2021/09/26 08:09:37;;;;;;;36.08;28.95;;;;;20.90;100965.00;;;;10386065;28;20199;-76
2021/09/26 08:14:39;;;;;;;31.95;25.17;;;;;21.30;100957.00;;;;10413938;28;20198;-77
2021/09/26 08:19:41;;;;;;;32.30;25.45;;;;;21.80;100962.00;;;;10427132;28;20194;-77
2021/09/26 08:24:43;;;;;;;27.27;23.52;;;;;22.80;100952.00;;;;10434853;28;20555;-77
2021/09/26 08:29:46;;;;;;;24.00;20.92;;;;;23.30;100963.00;;;;10469437;28;20210;-78
2021/09/26 08:35:13;;;;;;;25.92;21.35;;;;;23.20;100971.00;;;;10484425;28;20194;-76
2021/09/26 08:40:28;;;;;;;30.77;21.33;;;;;23.20;100950.00;;;;10485335;28;20205;-77
2021/09/26 08:45:39;;;;;;;21.08;18.88;;;;;23.30;100947.00;;;;10415541;28;20215;-77
2021/09/26 08:50:43;;;;;;;21.00;17.77;;;;;23.30;100947.00;;;;10433439;28;20195;-76
2021/09/26 08:55:45;;;;;;;20.52;17.77;;;;;23.60;100952.00;;;;10401226;28;20191;-77
2021/09/26 09:00:47;;;;;;;18.85;16.85;;;;;24.00;100944.00;;;;10476695;28;20247;-76
2021/09/26 09:05:51;;;;;;;21.40;17.50;;;;;24.50;100943.00;;;;10437630;28;20681;-77
2021/09/26 09:10:55;;;;;;;16.83;15.02;;;;;24.80;100957.00;;;;10425303;28;20256;-77
2021/09/26 09:15:59;;;;;;;18.65;14.98;;;;;24.80;100963.00;;;;10441238;28;20194;-77
2021/09/26 09:21:36;;;;;;;15.05;13.63;;;;;25.10;100974.00;;;;10408343;28;20186;-77
2021/09/26 09:26:39;;;;;;;15.32;13.82;;;;;25.50;100983.00;;;;10433957;28;20223;-77
2021/09/26 09:31:52;;;;;;;15.02;13.07;;;;;25.50;100989.00;;;;10457640;28;20602;-77
2021/09/26 09:37:21;;;;;;;14.55;12.57;;;;;25.40;100993.00;;;;10424325;28;20194;-77
2021/09/26 09:42:22;;;;;;;14.75;13.07;;;;;25.40;100999.00;;;;10424599;28;20202;-77
2021/09/26 09:47:24;;;;;;;13.07;11.77;;;;;25.30;101007.00;;;;10398982;28;20629;-77
2021/09/26 09:52:44;;;;;;;14.27;12.45;;;;;25.00;101007.00;;;;10385546;28;20675;-78
2021/09/26 09:57:46;;;;;;;12.40;10.90;;;;;25.10;101013.00;;;;10440590;28;20182;-77
2021/09/26 10:02:48;;;;;;;14.90;11.75;;;;;25.40;101010.00;;;;10440115;28;20183;-77
2021/09/26 10:07:51;;;;;;;10.27;9.15;;;;;25.80;101012.00;;;;10405260;28;20696;-77
2021/09/26 10:13:07;;;;;;;11.48;8.60;;;;;26.00;101007.00;;;;10414591;28;20202;-77
2021/09/26 10:18:09;;;;;;;7.88;6.63;;;;;25.70;101012.00;;;;10400871;28;20585;-77
2021/09/26 10:23:11;;;;;;;10.25;7.22;;;;;25.50;101005.00;;;;10407090;28;20191;-77
2021/09/26 10:28:14;;;;;;;7.43;6.57;;;;;25.20;101008.00;;;;10406613;28;20230;-77
2021/09/26 10:33:18;;;;;;;8.07;6.80;;;;;25.00;101002.00;;;;10423302;28;20270;-77
2021/09/26 10:38:22;;;;;;;8.15;7.35;;;;;24.90;101013.00;;;;10429611;28;20264;-77
2021/09/26 10:43:27;;;;;;;8.85;7.20;;;;;25.00;101021.00;;;;10447514;28;20197;-77
2021/09/26 10:49:03;;;;;;;6.22;5.63;;;;;24.90;101021.00;;;;10446901;28;20226;-77
2021/09/26 10:54:30;;;;;;;6.43;5.30;;;;;24.60;101020.00;;;;10424659;28;20245;-77
2021/09/26 10:59:46;;;;;;;5.82;5.32;;;;;24.50;101009.00;;;;10421938;28;20191;-77
2021/09/26 11:04:54;;;;;;;5.97;5.32;;;;;24.50;101016.00;;;;10438649;28;20197;-77
2021/09/26 11:10:03;;;;;;;6.72;5.78;;;;;24.70;101003.00;;;;10422224;28;20199;-77
2021/09/26 11:15:10;;;;;;;6.28;5.68;;;;;24.90;101012.00;;;;10445713;28;20186;-77
2021/09/26 11:20:32;;;;;;;7.88;5.43;;;;;25.00;101006.00;;;;10412927;28;20202;-78
2021/09/26 11:25:57;;;;;;;7.25;6.55;;;;;25.10;101008.00;;;;10458662;28;20277;-77
2021/09/26 11:31:02;;;;;;;5.68;4.50;;;;;25.00;101011.00;;;;10480732;28;20243;-77
2021/09/26 11:36:17;;;;;;;6.18;4.70;;;;;25.00;101012.00;;;;10469904;28;20201;-77
2021/09/26 11:41:39;;;;;;;5.85;4.38;;;;;25.20;101003.00;;;;10444406;28;20222;-77
2021/09/26 11:46:47;;;;;;;6.75;4.57;;;;;25.40;101003.00;;;;10444353;28;20206;-77
2021/09/26 11:51:52;;;;;;;4.30;3.67;;;;;25.60;100999.00;;;;10445110;28;20198;-77
2021/09/26 11:56:54;;;;;;;6.85;3.70;;;;;26.20;101002.00;;;;10468953;28;20726;-77
2021/09/26 12:01:56;;;;;;;5.10;3.50;;;;;26.80;100997.00;;;;10472661;28;20206;-78
2021/09/26 12:07:01;;;;;;;5.65;3.75;;;;;26.20;100997.00;;;;10403834;28;20240;-77
2021/09/26 12:12:06;;;;;;;6.57;4.25;;;;;25.70;100996.00;;;;10431855;28;20182;-77
2021/09/26 12:17:11;;;;;;;6.82;3.83;;;;;26.00;100986.00;;;;10420108;28;20207;-77
2021/09/26 12:22:20;;;;;;;4.35;3.42;;;;;25.90;100988.00;;;;10425409;28;20653;-77
2021/09/26 12:27:40;;;;;;;4.47;3.65;;;;;25.80;100984.00;;;;10412756;28;20219;-77
2021/09/26 12:32:51;;;;;;;4.80;3.40;;;;;26.70;100972.00;;;;10426271;28;20240;-77
2021/09/26 12:37:56;;;;;;;5.00;3.45;;;;;27.40;100983.00;;;;10397956;28;20214;-77
2021/09/26 12:43:01;;;;;;;5.13;3.72;;;;;27.20;100970.00;;;;10434625;28;20218;-78
2021/09/26 12:48:04;;;;;;;5.78;3.53;;;;;27.10;100972.00;;;;10458134;28;20226;-77
2021/09/26 12:53:07;;;;;;;4.75;3.58;;;;;26.40;100955.00;;;;10430878;28;20771;-77
2021/09/26 12:58:42;;;;;;;6.30;3.03;;;;;26.00;100958.00;;;;10421634;28;20190;-77
2021/09/26 13:04:14;;;;;;;4.63;3.22;;;;;26.10;100964.00;;;;10441208;28;20220;-78
2021/09/26 13:09:25;;;;;;;3.80;3.08;;;;;26.60;100974.00;;;;10441595;28;20221;-77
2021/09/26 13:14:31;;;;;;;3.70;3.40;;;;;25.40;100982.00;;;;10457939;28;20565;-78
2021/09/26 13:19:41;;;;;;;5.03;4.03;;;;;25.30;100981.00;;;;10416384;28;20198;-77
2021/09/26 13:24:49;;;;;;;4.63;3.63;;;;;25.40;100985.00;;;;10412073;28;20197;-78
2021/09/26 13:29:51;;;;;;;4.78;3.50;;;;;25.20;100984.00;;;;10434363;28;20252;-77
2021/09/26 13:35:08;;;;;;;4.45;3.25;;;;;25.80;100982.00;;;;10423893;28;20193;-77
2021/09/26 13:40:10;;;;;;;4.22;3.80;;;;;25.70;100985.00;;;;10436638;28;20214;-77
2021/09/26 13:45:12;;;;;;;5.55;3.75;;;;;25.30;100987.00;;;;10458185;28;20206;-77
2021/09/26 13:50:15;;;;;;;6.47;4.43;;;;;24.80;101001.00;;;;10423275;28;20202;-77
2021/09/26 13:55:17;;;;;;;8.18;5.55;;;;;24.20;101026.00;;;;10422077;28;20652;-76
2021/09/26 14:00:19;;;;;;;6.45;5.40;;;;;23.70;101010.00;;;;10420464;28;20202;-77
2021/09/26 14:05:21;;;;;;;9.52;5.65;;;;;23.30;101011.00;;;;10439358;28;20210;-77
2021/09/26 14:10:23;;;;;;;8.07;5.82;;;;;22.80;101007.00;;;;10439732;28;20198;-77
2021/09/26 14:15:25;;;;;;;5.90;5.40;;;;;22.70;101016.00;;;;10420685;28;20256;-77
2021/09/26 14:20:30;;;;;;;8.52;5.15;;;;;23.20;101026.00;;;;10385557;28;20186;-77
2021/09/26 14:25:33;;;;;;;5.53;5.03;;;;;24.10;101017.00;;;;10408412;28;20206;-77
2021/09/26 14:30:36;;;;;;;6.25;4.82;;;;;24.00;101024.00;;;;10474714;28;20285;-77
2021/09/26 14:35:40;;;;;;;6.30;4.78;;;;;23.80;101015.00;;;;10402470;28;20187;-78
2021/09/26 14:40:42;;;;;;;5.55;4.45;;;;;23.60;101001.00;;;;10434873;28;20248;-77
2021/09/26 14:45:44;;;;;;;4.55;4.15;;;;;23.60;100993.00;;;;10422006;28;20213;-77
2021/09/26 14:50:47;;;;;;;5.00;4.50;;;;;23.50;100985.00;;;;10395463;28;20206;-77
2021/09/26 14:55:49;;;;;;;5.82;4.60;;;;;23.60;100983.00;;;;10397401;28;20191;-77
2021/09/26 15:00:54;;;;;;;5.05;4.57;;;;;23.80;100984.00;;;;10447267;28;20214;-77
2021/09/26 15:05:56;;;;;;;4.95;4.10;;;;;24.00;100985.00;;;;10427576;28;20238;-77
2021/09/26 15:10:58;;;;;;;4.93;4.50;;;;;24.00;100988.00;;;;10434466;28;20538;-77
2021/09/26 15:16:03;;;;;;;5.57;4.85;;;;;24.20;100986.00;;;;10427652;28;20192;-77
2021/09/26 15:21:06;;;;;;;6.97;5.38;;;;;24.00;100993.00;;;;10441652;28;20198;-76
2021/09/26 15:26:08;;;;;;;5.68;5.05;;;;;23.70;100991.00;;;;10423449;28;20218;-76
2021/09/26 15:31:11;;;;;;;5.95;5.38;;;;;23.60;100983.00;;;;10416529;28;20208;-76
2021/09/26 15:36:13;;;;;;;6.15;4.97;;;;;23.50;100984.00;;;;10467619;28;21135;-77
2021/09/26 15:41:16;;;;;;;5.63;5.10;;;;;23.40;100975.00;;;;10407481;28;20217;-77
2021/09/26 15:46:19;;;;;;;5.55;5.00;;;;;23.40;100976.00;;;;10441445;28;20242;-77
2021/09/26 15:51:21;;;;;;;5.30;4.43;;;;;23.20;100972.00;;;;10424941;28;20210;-77
2021/09/26 15:56:24;;;;;;;5.47;4.65;;;;;22.60;100968.00;;;;10441288;28;20252;-76
2021/09/26 16:01:29;;;;;;;7.35;5.28;;;;;22.10;100972.00;;;;10429249;28;20248;-77
2021/09/26 16:06:31;;;;;;;6.88;5.45;;;;;21.80;100962.00;;;;10457097;28;20202;-77
2021/09/26 16:11:33;;;;;;;6.93;5.35;;;;;21.50;100964.00;;;;10398031;28;20198;-77
2021/09/26 16:16:35;;;;;;;7.15;4.75;;;;;21.20;100964.00;;;;10434424;28;20240;-77
2021/09/26 16:21:37;;;;;;;6.38;5.03;;;;;21.00;100965.00;;;;10408025;28;20201;-77
2021/09/26 16:26:39;;;;;;;5.50;4.82;;;;;20.80;100963.00;;;;10423473;28;20214;-77
2021/09/26 16:31:41;;;;;;;7.43;4.50;;;;;20.60;100962.00;;;;10439092;28;20855;-77
2021/09/26 16:36:43;;;;;;;8.63;5.50;;;;;20.50;100968.00;;;;10435947;28;20191;-77
2021/09/26 16:41:46;;;;;;;7.53;4.68;;;;;20.40;100971.00;;;;10414990;28;20207;-76
2021/09/26 16:46:49;;;;;;;8.45;4.97;;;;;20.20;100971.00;;;;10418469;28;20210;-77
2021/09/26 16:51:51;;;;;;;6.60;5.30;;;;;20.00;100973.00;;;;10411652;28;20248;-77
2021/09/26 16:56:53;;;;;;;9.80;6.00;;;;;19.90;100976.00;;;;10427140;28;20197;-77
2021/09/26 17:01:56;;;;;;;6.68;5.35;;;;;19.70;100987.00;;;;10417072;28;20194;-77
2021/09/26 17:06:58;;;;;;;9.02;6.07;;;;;19.50;100998.00;;;;10402126;28;20209;-76
2021/09/26 17:12:01;;;;;;;8.25;5.43;;;;;19.30;100998.00;;;;10431791;28;20217;-77
2021/09/26 17:17:03;;;;;;;6.22;5.63;;;;;19.20;101001.00;;;;10427087;28;20719;-77
2021/09/26 17:22:05;;;;;;;6.88;5.65;;;;;19.00;100998.00;;;;10466811;28;20653;-77
2021/09/26 17:27:10;;;;;;;7.00;5.85;;;;;18.90;101006.00;;;;10427472;28;20232;-76
2021/09/26 17:32:14;;;;;;;6.40;5.80;;;;;18.70;101020.00;;;;10438617;28;20201;-77
2021/09/26 17:37:16;;;;;;;6.72;5.88;;;;;18.60;101030.00;;;;10422238;28;20183;-77
2021/09/26 17:42:18;;;;;;;6.82;5.38;;;;;18.50;101025.00;;;;10421524;28;20696;-77
2021/09/26 17:47:22;;;;;;;6.90;5.82;;;;;18.40;101024.00;;;;10436005;28;20585;-77
2021/09/26 17:52:24;;;;;;;8.63;7.20;;;;;18.30;101025.00;;;;10402819;28;20220;-76
2021/09/26 17:57:26;;;;;;;7.82;7.03;;;;;18.20;101020.00;;;;10434863;28;20273;-77
2021/09/26 18:02:28;;;;;;;6.95;6.03;;;;;18.10;101034.00;;;;10399798;28;20197;-77
2021/09/26 18:07:30;;;;;;;10.82;6.07;;;;;18.00;101037.00;;;;10405474;28;20222;-77
2021/09/26 18:12:32;;;;;;;10.05;6.22;;;;;18.00;101028.00;;;;10451573;28;20198;-77
2021/09/26 18:17:34;;;;;;;8.88;6.20;;;;;17.90;101024.00;;;;10448664;28;20210;-78
2021/09/26 18:22:37;;;;;;;8.75;7.20;;;;;17.90;101018.00;;;;10442789;28;20573;-77
2021/09/26 18:27:39;;;;;;;7.10;6.28;;;;;17.80;101016.00;;;;10428021;28;20205;-78
2021/09/26 18:32:41;;;;;;;9.68;7.03;;;;;17.70;101019.00;;;;10436425;28;20198;-77
2021/09/26 18:37:44;;;;;;;9.05;7.10;;;;;17.60;101017.00;;;;10403037;28;20296;-78
2021/09/26 18:42:46;;;;;;;10.57;7.07;;;;;17.50;101013.00;;;;10441139;28;20206;-77
2021/09/26 18:47:48;;;;;;;10.18;8.77;;;;;17.40;101019.00;;;;10462921;28;20222;-78
2021/09/26 18:52:51;;;;;;;10.85;7.65;;;;;17.30;101019.00;;;;10401698;28;20218;-78
2021/09/26 18:57:53;;;;;;;9.15;7.68;;;;;17.20;101014.00;;;;10436296;28;20194;-77
2021/09/26 19:02:55;;;;;;;11.68;7.95;;;;;17.10;101015.00;;;;10453527;28;20228;-78
2021/09/26 19:07:59;;;;;;;11.23;9.38;;;;;17.00;101013.00;;;;10380253;28;20206;-78
2021/09/26 19:13:05;;;;;;;11.90;8.38;;;;;17.00;101014.00;;;;10423435;28;20222;-78
2021/09/26 19:18:07;;;;;;;11.38;7.72;;;;;17.00;101019.00;;;;10419474;28;20301;-78
2021/09/26 19:23:09;;;;;;;9.75;7.53;;;;;16.90;101005.00;;;;10421260;28;20688;-78
2021/09/26 19:28:11;;;;;;;9.30;8.18;;;;;16.80;101000.00;;;;10421577;28;20206;-78
2021/09/26 19:33:13;;;;;;;11.65;8.85;;;;;16.80;100990.00;;;;10415789;28;20214;-78
2021/09/26 19:38:15;;;;;;;13.00;9.38;;;;;16.70;100981.00;;;;10435685;28;20194;-77
2021/09/26 19:43:17;;;;;;;10.77;8.90;;;;;16.80;100985.00;;;;10450512;28;20222;-77
2021/09/26 19:48:19;;;;;;;9.40;8.27;;;;;16.70;100984.00;;;;10386970;28;20226;-78
2021/09/26 19:53:21;;;;;;;12.73;9.07;;;;;16.60;100989.00;;;;10427228;28;20226;-78
2021/09/26 19:58:24;;;;;;;18.47;13.77;;;;;16.60;100987.00;;;;10415524;28;20222;-78
2021/09/26 20:03:26;;;;;;;13.07;8.63;;;;;16.60;100985.00;;;;10433816;28;20210;-77
2021/09/26 20:08:28;;;;;;;10.60;8.68;;;;;16.60;100992.00;;;;10417270;28;20222;-77
2021/09/26 20:13:30;;;;;;;10.38;7.97;;;;;16.60;100994.00;;;;10432910;28;20187;-78
2021/09/26 20:18:33;;;;;;;11.13;7.70;;;;;16.60;100995.00;;;;10454340;28;20831;-78
2021/09/26 20:23:36;;;;;;;11.50;8.50;;;;;16.60;100997.00;;;;10419325;28;20202;-78
2021/09/26 20:28:38;;;;;;;9.82;8.05;;;;;16.50;100991.00;;;;10435964;28;20210;-78
2021/09/26 20:33:41;;;;;;;11.57;9.20;;;;;16.50;100984.00;;;;10438634;28;20194;-78
2021/09/26 20:38:42;;;;;;;10.52;8.27;;;;;16.50;100984.00;;;;10417090;28;20553;-78
2021/09/26 20:43:45;;;;;;;12.45;8.23;;;;;16.50;100974.00;;;;10437671;28;20198;-78
2021/09/26 20:48:47;;;;;;;8.90;6.75;;;;;16.50;100968.00;;;;10463839;28;20218;-77
2021/09/26 20:53:50;;;;;;;9.83;7.40;;;;;16.50;100962.00;;;;10460929;28;20201;-78
2021/09/26 20:58:52;;;;;;;10.20;7.47;;;;;16.60;100951.00;;;;10397750;28;20195;-78
2021/09/26 21:03:53;;;;;;;9.75;7.50;;;;;16.60;100949.00;;;;10421605;28;20236;-78
2021/09/26 21:08:55;;;;;;;9.65;7.22;;;;;16.70;100950.00;;;;10419633;28;20233;-78
2021/09/26 21:13:57;;;;;;;11.02;7.47;;;;;16.70;100957.00;;;;10432001;28;20187;-78
2021/09/26 21:19:00;;;;;;;9.23;7.65;;;;;16.70;100958.00;;;;10448000;28;20221;-78
2021/09/26 21:24:03;;;;;;;9.48;7.78;;;;;16.80;100965.00;;;;10392328;28;20224;-78
2021/09/26 21:29:05;;;;;;;8.87;7.23;;;;;16.70;100965.00;;;;10424185;28;20236;-77
2021/09/26 21:34:06;;;;;;;10.52;8.10;;;;;16.70;100972.00;;;;10413544;28;20198;-77
2021/09/26 21:39:21;;;;;;;9.40;7.90;;;;;16.60;100961.00;;;;10416599;28;20218;-78
2021/09/26 21:44:27;;;;;;;10.63;7.63;;;;;16.60;100966.00;;;;10432653;28;20221;-77
2021/09/26 21:49:30;;;;;;;9.70;7.85;;;;;16.50;100973.00;;;;10416480;28;20222;-78
2021/09/26 21:54:32;;;;;;;8.23;7.17;;;;;16.50;100980.00;;;;10401641;28;20807;-78
2021/09/26 21:59:34;;;;;;;10.73;8.13;;;;;16.40;100980.00;;;;10449517;28;20197;-78
2021/09/26 22:04:36;;;;;;;11.57;8.10;;;;;16.40;100982.00;;;;10434165;28;20569;-77
2021/09/26 22:09:38;;;;;;;12.10;8.43;;;;;16.40;100980.00;;;;10431926;28;20593;-78
2021/09/26 22:14:39;;;;;;;9.87;8.00;;;;;16.40;100985.00;;;;10448773;28;20314;-79
2021/09/26 22:19:41;;;;;;;9.83;8.33;;;;;16.30;100985.00;;;;10421667;28;20194;-79
2021/09/26 22:24:45;;;;;;;13.73;8.60;;;;;16.30;100995.00;;;;10418748;28;20189;-79
2021/09/26 22:29:47;;;;;;;9.77;8.32;;;;;16.20;100995.00;;;;10407613;28;20268;-79
2021/09/26 22:34:49;;;;;;;12.77;8.50;;;;;16.20;100991.00;;;;10436359;28;20718;-79
2021/09/26 22:39:51;;;;;;;11.47;8.30;;;;;16.20;100987.00;;;;10459108;28;20213;-79
2021/09/26 22:44:53;;;;;;;15.27;9.57;;;;;16.20;100989.00;;;;10458701;28;20183;-79
2021/09/26 22:49:55;;;;;;;9.60;8.23;;;;;16.10;100991.00;;;;10407450;28;20214;-79
2021/09/26 22:54:57;;;;;;;14.77;8.40;;;;;16.10;100988.00;;;;10464896;28;20715;-79
2021/09/26 22:59:59;;;;;;;14.53;8.93;;;;;16.10;100997.00;;;;10421613;28;20244;-79
2021/09/26 23:05:02;;;;;;;11.97;8.53;;;;;16.00;101004.00;;;;10418648;28;20277;-79
2021/09/26 23:10:04;;;;;;;13.07;9.40;;;;;16.10;100997.00;;;;10460747;28;20707;-79
2021/09/26 23:15:08;;;;;;;12.53;9.67;;;;;16.30;101001.00;;;;10420313;28;20260;-79
2021/09/26 23:20:13;;;;;;;11.63;8.97;;;;;16.50;101006.00;;;;10450185;28;20193;-79
2021/09/26 23:25:18;;;;;;;13.48;9.65;;;;;16.70;101009.00;;;;10411314;28;20561;-79
2021/09/26 23:30:21;;;;;;;11.57;9.07;;;;;16.80;101015.00;;;;10441689;28;20562;-79
2021/09/26 23:35:27;;;;;;;10.88;8.93;;;;;16.90;101001.00;;;;10420094;28;20186;-79
2021/09/26 23:40:39;;;;;;;10.90;8.82;;;;;17.00;101000.00;;;;10439669;28;20679;-79
2021/09/26 23:45:42;;;;;;;13.38;8.57;;;;;16.90;100995.00;;;;10439492;28;20231;-79
2021/09/26 23:50:43;;;;;;;15.40;9.37;;;;;16.80;100995.00;;;;10437740;28;20221;-79
2021/09/26 23:55:46;;;;;;;10.40;9.00;;;;;16.70;100990.00;;;;10404060;28;20194;-80
